createdAt,value
2019-01-17T00:00:45.386Z,8.48
2019-01-17T00:02:20.745Z,7.42
2019-01-17T00:03:41.878Z,7.62
2019-01-17T00:05:09.073Z,6.70
2019-01-17T00:06:24.296Z,8.85
2019-01-17T00:07:47.307Z,7.30
2019-01-17T00:09:01.677Z,8.35
2019-01-17T00:10:15.249Z,8.23
2019-01-17T00:11:39.349Z,7.65
2019-01-17T00:13:06.728Z,7.67
2019-01-17T00:14:43.155Z,9.23
2019-01-17T00:16:21.014Z,8.10
2019-01-17T00:17:47.195Z,8.45
2019-01-17T00:19:07.287Z,7.67
2019-01-17T00:20:36.519Z,8.45
2019-01-17T00:22:01.259Z,8.50
2019-01-17T00:23:28.418Z,8.90
2019-01-17T00:24:51.411Z,7.65
2019-01-17T00:26:21.383Z,8.50
2019-01-17T00:27:45.720Z,8.43
2019-01-17T00:29:06.159Z,9.45
2019-01-17T00:30:26.357Z,8.33
2019-01-17T00:31:56.244Z,7.90
2019-01-17T00:33:32.414Z,10.65
2019-01-17T00:34:58.486Z,7.87
2019-01-17T00:36:21.750Z,7.35
2019-01-17T00:37:51.771Z,7.28
2019-01-17T00:39:16.227Z,7.12
2019-01-17T00:40:46.771Z,7.33
2019-01-17T00:42:16.261Z,6.95
2019-01-17T00:43:39.040Z,7.10
2019-01-17T00:45:02.700Z,7.37
2019-01-17T00:46:42.230Z,7.87
2019-01-17T00:48:03.881Z,6.67
2019-01-17T00:49:19.889Z,5.83
2019-01-17T00:50:32.182Z,7.12
2019-01-17T00:51:50.451Z,7.05
2019-01-17T00:53:13.211Z,6.67
2019-01-17T00:54:40.197Z,6.83
2019-01-17T00:56:03.094Z,7.30
2019-01-17T00:57:39.594Z,7.50
2019-01-17T00:59:02.353Z,6.40
2019-01-17T01:00:31.198Z,7.00
2019-01-17T01:01:54.396Z,7.28
2019-01-17T01:03:17.445Z,5.53
2019-01-17T01:04:40.587Z,6.83
2019-01-17T01:06:04.166Z,6.62
2019-01-17T01:07:46.783Z,5.72
2019-01-17T01:09:23.359Z,6.37
2019-01-17T01:10:35.212Z,6.17
2019-01-17T01:11:59.184Z,6.25
2019-01-17T01:13:29.446Z,5.75
2019-01-17T01:14:57.372Z,6.78
2019-01-17T01:16:21.684Z,5.92
2019-01-17T01:17:45.305Z,6.42
2019-01-17T01:18:58.258Z,6.12
2019-01-17T01:20:32.096Z,5.90
2019-01-17T01:21:46.102Z,4.80
2019-01-17T01:23:08.914Z,6.30
2019-01-17T01:24:32.450Z,5.40
2019-01-17T01:25:59.721Z,6.30
2019-01-17T01:27:33.273Z,5.95
2019-01-17T01:28:49.703Z,6.60
2019-01-17T01:30:12.838Z,5.78
2019-01-17T01:31:39.860Z,5.08
2019-01-17T01:33:04.335Z,6.60
2019-01-17T01:34:33.269Z,5.62
2019-01-17T01:36:00.648Z,6.17
2019-01-17T01:37:30.582Z,5.15
2019-01-17T01:39:04.655Z,5.00
2019-01-17T01:40:41.084Z,5.78
2019-01-17T01:42:20.581Z,5.08
2019-01-17T01:43:46.135Z,5.08
2019-01-17T01:45:08.964Z,6.15
2019-01-17T01:46:34.511Z,5.28
2019-01-17T01:47:49.452Z,6.22
2019-01-17T01:49:08.464Z,5.85
2019-01-17T01:50:24.202Z,5.62
2019-01-17T01:51:57.518Z,5.28
2019-01-17T01:53:08.183Z,6.00
2019-01-17T01:54:13.547Z,6.55
2019-01-17T01:55:18.856Z,6.20
2019-01-17T01:56:23.893Z,5.80
2019-01-17T01:57:29.307Z,6.67
2019-01-17T01:58:34.265Z,6.30
2019-01-17T01:59:39.618Z,6.80
2019-01-17T02:00:45.204Z,5.65
2019-01-17T02:01:50.469Z,6.00
2019-01-17T02:02:55.596Z,5.80
2019-01-17T02:04:00.932Z,6.40
2019-01-17T02:05:10.146Z,7.90
2019-01-17T02:06:15.532Z,6.70
2019-01-17T02:07:20.691Z,6.90
2019-01-17T02:08:26.008Z,6.78
2019-01-17T02:09:31.151Z,6.17
2019-01-17T02:10:36.775Z,7.37
2019-01-17T02:11:41.800Z,6.53
2019-01-17T02:12:46.908Z,7.08
2019-01-17T02:13:52.844Z,6.40
2019-01-17T02:14:58.562Z,7.10
2019-01-17T02:16:03.644Z,8.08
2019-01-17T02:17:08.728Z,6.90
2019-01-17T02:18:14.108Z,6.62
2019-01-17T02:19:19.649Z,7.08
2019-01-17T02:20:24.864Z,7.20
2019-01-17T02:21:30.310Z,6.87
2019-01-17T02:22:35.556Z,7.30
2019-01-17T02:23:40.669Z,6.67
2019-01-17T02:24:46.091Z,7.40
2019-01-17T02:25:51.413Z,7.12
2019-01-17T02:26:56.852Z,6.70
2019-01-17T02:28:01.880Z,7.28
2019-01-17T02:29:07.218Z,6.90
2019-01-17T02:30:14.444Z,6.87
2019-01-17T02:31:19.544Z,6.35
2019-01-17T02:32:24.941Z,6.83
2019-01-17T02:33:30.306Z,6.75
2019-01-17T02:34:35.465Z,6.62
2019-01-17T02:35:40.496Z,6.80
2019-01-17T02:36:46.179Z,7.25
2019-01-17T02:37:51.293Z,7.42
2019-01-17T02:38:56.397Z,7.20
2019-01-17T02:40:02.066Z,7.40
2019-01-17T02:41:07.253Z,6.75
2019-01-17T02:42:12.638Z,7.10
2019-01-17T02:43:17.747Z,6.65
2019-01-17T02:44:23.119Z,6.37
2019-01-17T02:45:28.358Z,8.20
2019-01-17T02:46:33.890Z,7.55
2019-01-17T02:47:39.383Z,7.95
2019-01-17T02:48:44.443Z,7.53
2019-01-17T02:49:50.041Z,7.25
2019-01-17T02:50:55.163Z,7.05
2019-01-17T02:52:00.566Z,6.70
2019-01-17T02:53:05.828Z,7.95
2019-01-17T02:54:11.109Z,8.25
2019-01-17T02:55:16.530Z,8.63
2019-01-17T02:56:21.477Z,7.55
2019-01-17T02:57:26.588Z,7.75
2019-01-17T02:58:31.510Z,6.78
2019-01-17T02:59:36.874Z,7.50
2019-01-17T03:00:42.133Z,7.25
2019-01-17T03:01:47.516Z,7.92
2019-01-17T03:02:53.121Z,7.90
2019-01-17T03:03:58.213Z,7.30
2019-01-17T03:05:03.368Z,7.45
2019-01-17T03:06:08.414Z,7.10
2019-01-17T03:07:13.549Z,7.65
2019-01-17T03:08:19.056Z,7.15
2019-01-17T03:09:24.510Z,7.65
2019-01-17T03:10:29.934Z,7.55
2019-01-17T03:11:36.568Z,7.70
2019-01-17T03:12:41.655Z,8.60
2019-01-17T03:13:46.725Z,7.35
2019-01-17T03:14:51.742Z,7.47
2019-01-17T03:15:56.916Z,7.42
2019-01-17T03:17:02.149Z,7.42
2019-01-17T03:18:07.364Z,8.23
2019-01-17T03:19:12.442Z,8.78
2019-01-17T03:20:17.514Z,7.97
2019-01-17T03:21:23.865Z,7.45
2019-01-17T03:22:29.240Z,8.00
2019-01-17T03:23:34.544Z,7.80
2019-01-17T03:24:43.159Z,8.03
2019-01-17T03:25:46.760Z,8.68
2019-01-17T03:26:51.858Z,8.10
2019-01-17T03:27:57.296Z,7.90
2019-01-17T03:29:02.339Z,7.90
2019-01-17T03:30:18.932Z,8.10
2019-01-17T03:31:24.904Z,8.00
2019-01-17T03:32:30.254Z,9.00
2019-01-17T03:33:35.341Z,8.58
2019-01-17T03:34:40.480Z,8.78
2019-01-17T03:35:45.873Z,9.20
2019-01-17T03:36:51.616Z,8.83
2019-01-17T03:37:57.306Z,9.25
2019-01-17T03:39:03.302Z,8.55
2019-01-17T03:40:10.256Z,8.70
2019-01-17T03:41:15.834Z,8.55
2019-01-17T03:42:21.007Z,8.80
2019-01-17T03:43:26.308Z,9.10
2019-01-17T03:44:31.337Z,10.13
2019-01-17T03:45:36.680Z,11.12
2019-01-17T03:46:42.045Z,8.80
2019-01-17T03:47:47.607Z,9.95
2019-01-17T03:48:52.625Z,8.60
2019-01-17T03:49:57.774Z,8.73
2019-01-17T03:51:03.237Z,9.03
2019-01-17T03:52:08.619Z,9.60
2019-01-17T03:53:13.735Z,9.83
2019-01-17T03:54:19.497Z,10.25
2019-01-17T03:55:25.331Z,10.48
2019-01-17T03:56:30.495Z,11.28
2019-01-17T03:57:35.608Z,10.80
2019-01-17T03:58:40.625Z,10.32
2019-01-17T03:59:46.795Z,10.82
2019-01-17T04:00:52.392Z,10.68
2019-01-17T04:01:57.434Z,10.70
2019-01-17T04:03:02.552Z,10.32
2019-01-17T04:04:08.007Z,8.63
2019-01-17T04:05:13.108Z,11.18
2019-01-17T04:06:18.610Z,10.38
2019-01-17T04:07:23.692Z,10.32
2019-01-17T04:08:29.526Z,10.75
2019-01-17T04:09:35.493Z,9.25
2019-01-17T04:10:40.699Z,9.60
2019-01-17T04:11:46.487Z,11.57
2019-01-17T04:12:51.638Z,11.35
2019-01-17T04:13:57.281Z,11.83
2019-01-17T04:15:02.404Z,11.93
2019-01-17T04:16:07.859Z,11.88
2019-01-17T04:17:13.429Z,12.55
2019-01-17T04:18:18.732Z,11.68
2019-01-17T04:19:24.016Z,11.70
2019-01-17T04:20:29.404Z,11.60
2019-01-17T04:21:34.539Z,11.10
2019-01-17T04:22:39.982Z,12.65
2019-01-17T04:23:45.511Z,11.53
2019-01-17T04:24:57.128Z,13.28
2019-01-17T04:25:57.494Z,10.80
2019-01-17T04:27:02.894Z,12.68
2019-01-17T04:28:07.981Z,13.22
2019-01-17T04:29:13.471Z,12.65
2019-01-17T04:30:19.329Z,11.55
2019-01-17T04:31:24.731Z,10.80
2019-01-17T04:32:29.761Z,11.12
2019-01-17T04:33:35.280Z,11.30
2019-01-17T04:34:40.237Z,12.20
2019-01-17T04:35:45.598Z,11.80
2019-01-17T04:36:50.744Z,12.47
2019-01-17T04:37:56.170Z,12.30
2019-01-17T04:39:01.475Z,12.53
2019-01-17T04:40:07.705Z,12.68
2019-01-17T04:41:15.803Z,11.68
2019-01-17T04:42:21.101Z,12.70
2019-01-17T04:43:26.528Z,12.45
2019-01-17T04:44:32.310Z,11.80
2019-01-17T04:45:37.383Z,13.00
2019-01-17T04:46:42.507Z,12.73
2019-01-17T04:47:48.281Z,12.15
2019-01-17T04:48:53.767Z,12.43
2019-01-17T04:49:59.224Z,12.25
2019-01-17T04:51:04.587Z,11.88
2019-01-17T04:52:09.692Z,12.88
2019-01-17T04:53:14.810Z,13.22
2019-01-17T04:54:20.009Z,14.55
2019-01-17T04:55:25.269Z,12.55
2019-01-17T04:56:30.235Z,13.15
2019-01-17T04:57:35.271Z,13.25
2019-01-17T04:58:40.846Z,12.58
2019-01-17T04:59:45.894Z,12.90
2019-01-17T05:00:51.646Z,13.40
2019-01-17T05:01:56.992Z,13.50
2019-01-17T05:03:02.176Z,12.53
2019-01-17T05:04:07.291Z,13.10
2019-01-17T05:05:12.899Z,12.82
2019-01-17T05:06:18.049Z,14.10
2019-01-17T05:07:23.695Z,13.45
2019-01-17T05:08:28.788Z,11.88
2019-01-17T05:09:33.886Z,12.50
2019-01-17T05:10:39.457Z,13.90
2019-01-17T05:11:44.688Z,12.13
2019-01-17T05:12:50.136Z,12.47
2019-01-17T05:13:55.857Z,13.13
2019-01-17T05:15:00.941Z,11.90
2019-01-17T05:16:06.402Z,12.60
2019-01-17T05:17:11.537Z,12.78
2019-01-17T05:18:16.782Z,15.20
2019-01-17T05:19:22.011Z,12.53
2019-01-17T05:20:27.803Z,13.25
2019-01-17T05:21:32.844Z,12.75
2019-01-17T05:22:38.665Z,12.10
2019-01-17T05:23:44.605Z,12.30
2019-01-17T05:24:49.757Z,12.70
2019-01-17T05:25:56.062Z,13.03
2019-01-17T05:27:01.115Z,12.35
2019-01-17T05:28:06.862Z,12.37
2019-01-17T05:29:11.975Z,12.35
2019-01-17T05:30:18.489Z,12.98
2019-01-17T05:31:23.847Z,12.95
2019-01-17T05:32:28.954Z,12.65
2019-01-17T05:33:33.977Z,12.82
2019-01-17T05:34:39.859Z,12.80
2019-01-17T05:35:45.017Z,14.70
2019-01-17T05:36:50.403Z,12.93
2019-01-17T05:37:55.878Z,12.25
2019-01-17T05:39:01.214Z,12.00
2019-01-17T05:40:08.531Z,13.03
2019-01-17T05:41:13.912Z,14.18
2019-01-17T05:42:19.474Z,12.28
2019-01-17T05:43:24.772Z,13.48
2019-01-17T05:44:30.128Z,14.13
2019-01-17T05:45:35.780Z,14.03
2019-01-17T05:46:40.901Z,12.40
2019-01-17T05:47:46.081Z,13.48
2019-01-17T05:48:51.502Z,14.18
2019-01-17T05:49:56.610Z,12.80
2019-01-17T05:51:01.675Z,13.88
2019-01-17T05:52:07.116Z,13.40
2019-01-17T05:53:12.910Z,13.10
2019-01-17T05:54:18.290Z,13.83
2019-01-17T05:55:24.158Z,14.07
2019-01-17T05:56:29.529Z,13.48
2019-01-17T05:57:35.001Z,13.45
2019-01-17T05:58:40.827Z,13.88
2019-01-17T05:59:45.924Z,13.10
2019-01-17T06:00:51.045Z,14.58
2019-01-17T06:01:56.414Z,14.60
2019-01-17T06:03:02.038Z,14.53
2019-01-17T06:04:07.311Z,13.38
2019-01-17T06:05:13.441Z,12.63
2019-01-17T06:06:19.169Z,12.93
2019-01-17T06:07:24.677Z,14.30
2019-01-17T06:08:29.843Z,12.15
2019-01-17T06:09:34.990Z,14.58
2019-01-17T06:10:40.781Z,14.03
2019-01-17T06:11:45.829Z,14.30
2019-01-17T06:12:52.430Z,14.00
2019-01-17T06:14:03.515Z,12.95
2019-01-17T06:15:09.011Z,12.63
2019-01-17T06:16:14.031Z,13.80
2019-01-17T06:17:19.090Z,12.95
2019-01-17T06:18:24.564Z,13.40
2019-01-17T06:19:29.653Z,13.18
2019-01-17T06:20:34.704Z,13.60
2019-01-17T06:21:40.075Z,13.00
2019-01-17T06:22:45.203Z,14.73
2019-01-17T06:23:50.545Z,14.23
2019-01-17T06:24:55.583Z,14.30
2019-01-17T06:26:00.675Z,13.22
2019-01-17T06:27:06.074Z,13.68
2019-01-17T06:28:12.476Z,13.40
2019-01-17T06:29:17.952Z,14.23
2019-01-17T06:30:23.442Z,13.58
2019-01-17T06:31:28.885Z,13.50
2019-01-17T06:32:34.318Z,14.00
2019-01-17T06:33:40.056Z,14.23
2019-01-17T06:34:45.204Z,13.80
2019-01-17T06:35:50.330Z,13.00
2019-01-17T06:36:55.750Z,13.65
2019-01-17T06:38:00.793Z,13.45
2019-01-17T06:39:08.508Z,13.38
2019-01-17T06:40:19.942Z,12.98
2019-01-17T06:41:25.665Z,14.10
2019-01-17T06:42:31.162Z,13.03
2019-01-17T06:43:36.610Z,14.45
2019-01-17T06:44:41.874Z,13.88
2019-01-17T06:45:47.063Z,14.40
2019-01-17T06:46:52.146Z,12.85
2019-01-17T06:47:57.602Z,13.05
2019-01-17T06:49:03.191Z,13.88
2019-01-17T06:50:08.653Z,12.82
2019-01-17T06:51:13.835Z,14.15
2019-01-17T06:52:19.549Z,14.18
2019-01-17T06:53:24.545Z,14.33
2019-01-17T06:54:29.655Z,13.03
2019-01-17T06:55:35.001Z,13.10
2019-01-17T06:56:40.744Z,12.73
2019-01-17T06:57:45.771Z,12.28
2019-01-17T06:58:51.414Z,13.45
2019-01-17T06:59:56.548Z,13.93
2019-01-17T07:01:01.640Z,13.53
2019-01-17T07:02:07.075Z,13.00
2019-01-17T07:03:12.104Z,13.28
2019-01-17T07:04:17.439Z,12.93
2019-01-17T07:05:22.868Z,13.40
2019-01-17T07:06:27.909Z,11.90
2019-01-17T07:07:33.750Z,13.18
2019-01-17T07:08:38.852Z,12.93
2019-01-17T07:09:44.114Z,12.35
2019-01-17T07:10:49.490Z,13.55
2019-01-17T07:11:54.832Z,12.07
2019-01-17T07:13:00.512Z,12.37
2019-01-17T07:14:06.390Z,12.25
2019-01-17T07:15:12.007Z,12.68
2019-01-17T07:16:17.825Z,13.35
2019-01-17T07:17:23.471Z,13.45
2019-01-17T07:18:28.514Z,13.13
2019-01-17T07:19:34.038Z,13.65
2019-01-17T07:20:39.343Z,12.93
2019-01-17T07:21:48.225Z,11.78
2019-01-17T07:22:53.628Z,12.15
2019-01-17T07:23:58.665Z,10.35
2019-01-17T07:25:04.427Z,11.85
2019-01-17T07:26:09.567Z,11.65
2019-01-17T07:27:14.671Z,12.37
2019-01-17T07:28:20.228Z,11.08
2019-01-17T07:29:25.644Z,12.45
2019-01-17T07:30:32.543Z,11.57
2019-01-17T07:31:37.971Z,11.35
2019-01-17T07:32:43.007Z,12.30
2019-01-17T07:33:48.563Z,12.15
2019-01-17T07:34:53.794Z,10.28
2019-01-17T07:35:59.521Z,11.63
2019-01-17T07:37:04.541Z,12.70
2019-01-17T07:38:10.269Z,12.33
2019-01-17T07:39:15.581Z,12.40
2019-01-17T07:40:20.910Z,12.33
2019-01-17T07:41:26.697Z,12.13
2019-01-17T07:42:31.692Z,12.23
2019-01-17T07:43:36.850Z,12.68
2019-01-17T07:44:42.351Z,11.83
2019-01-17T07:45:47.437Z,11.95
2019-01-17T07:46:52.435Z,13.05
2019-01-17T07:47:58.086Z,12.90
2019-01-17T07:49:03.185Z,12.33
2019-01-17T07:50:09.247Z,10.95
2019-01-17T07:51:14.786Z,12.00
2019-01-17T07:52:19.884Z,12.85
2019-01-17T07:53:25.255Z,13.58
2019-01-17T07:54:31.005Z,12.90
2019-01-17T07:55:36.187Z,13.65
2019-01-17T07:56:42.062Z,14.00
2019-01-17T07:57:47.552Z,14.30
2019-01-17T07:58:52.771Z,16.07
2019-01-17T07:59:58.178Z,14.68
2019-01-17T08:01:03.402Z,15.65
2019-01-17T08:02:08.545Z,17.20
2019-01-17T08:03:13.759Z,18.10
2019-01-17T08:04:19.121Z,19.27
2019-01-17T08:05:25.076Z,19.85
2019-01-17T08:06:30.776Z,18.37
2019-01-17T08:07:35.906Z,20.62
2019-01-17T08:08:41.570Z,19.80
2019-01-17T08:09:46.865Z,19.35
2019-01-17T08:10:52.504Z,19.70
2019-01-17T08:11:57.631Z,20.95
2019-01-17T08:13:02.768Z,20.85
2019-01-17T08:14:08.193Z,20.30
2019-01-17T08:15:14.136Z,20.60
2019-01-17T08:16:19.505Z,19.67
2019-01-17T08:17:24.631Z,18.50
2019-01-17T08:18:29.745Z,15.38
2019-01-17T08:19:34.696Z,13.38
2019-01-17T08:20:42.975Z,13.35
2019-01-17T08:21:48.085Z,14.50
2019-01-17T08:22:53.819Z,15.25
2019-01-17T08:23:59.230Z,15.55
2019-01-17T08:25:05.031Z,16.20
2019-01-17T08:26:10.479Z,16.10
2019-01-17T08:27:15.770Z,17.32
2019-01-17T08:28:21.271Z,17.67
2019-01-17T08:29:26.942Z,16.57
2019-01-17T08:30:32.071Z,17.42
2019-01-17T08:31:37.442Z,17.37
2019-01-17T08:32:43.486Z,16.15
2019-01-17T08:33:48.615Z,14.65
2019-01-17T08:34:54.141Z,15.90
2019-01-17T08:35:59.248Z,13.98
2019-01-17T08:37:04.944Z,15.70
2019-01-17T08:38:09.944Z,14.65
2019-01-17T08:39:15.691Z,15.28
2019-01-17T08:40:30.843Z,17.27
2019-01-17T08:41:36.328Z,19.82
2019-01-17T08:42:41.575Z,18.02
2019-01-17T08:43:46.696Z,18.00
2019-01-17T08:44:51.742Z,17.70
2019-01-17T08:45:56.864Z,15.93
2019-01-17T08:47:01.818Z,13.83
2019-01-17T08:48:07.200Z,11.93
2019-01-17T08:49:12.387Z,11.40
2019-01-17T08:50:17.590Z,12.50
2019-01-17T08:51:22.876Z,11.38
2019-01-17T08:52:27.889Z,11.10
2019-01-17T08:53:32.985Z,8.90
2019-01-17T08:54:38.713Z,9.03
2019-01-17T08:55:44.379Z,8.60
2019-01-17T08:56:50.146Z,9.88
2019-01-17T08:57:55.529Z,10.10
2019-01-17T08:59:00.833Z,8.85
2019-01-17T09:00:08.771Z,9.28
2019-01-17T09:01:13.867Z,10.05
2019-01-17T09:02:19.565Z,9.55
2019-01-17T09:03:25.576Z,8.75
2019-01-17T09:04:30.690Z,9.25
2019-01-17T09:05:36.266Z,8.70
2019-01-17T09:06:41.455Z,8.78
2019-01-17T09:07:46.964Z,8.00
2019-01-17T09:08:52.827Z,9.53
2019-01-17T09:09:57.876Z,9.00
2019-01-17T09:11:03.175Z,7.97
2019-01-17T09:12:08.347Z,7.10
2019-01-17T09:13:13.485Z,7.42
2019-01-17T09:14:19.208Z,6.78
2019-01-17T09:15:29.983Z,6.80
2019-01-17T09:16:35.479Z,6.37
2019-01-17T09:17:40.968Z,5.90
2019-01-17T09:18:46.395Z,6.00
2019-01-17T09:19:52.286Z,5.42
2019-01-17T09:20:57.375Z,5.62
2019-01-17T09:22:03.077Z,5.80
2019-01-17T09:23:08.742Z,5.10
2019-01-17T09:24:13.873Z,4.70
2019-01-17T09:25:19.070Z,5.10
2019-01-17T09:26:24.540Z,4.12
2019-01-17T09:27:29.548Z,4.65
2019-01-17T09:28:34.809Z,4.17
2019-01-17T09:29:39.918Z,4.47
2019-01-17T09:30:45.176Z,3.90
2019-01-17T09:31:50.560Z,4.65
2019-01-17T09:32:55.950Z,4.00
2019-01-17T09:34:01.544Z,4.20
2019-01-17T09:35:08.831Z,4.05
2019-01-17T09:36:14.406Z,3.42
2019-01-17T09:37:19.484Z,4.50
2019-01-17T09:38:24.910Z,4.08
2019-01-17T09:39:30.348Z,4.62
2019-01-17T09:40:35.757Z,4.40
2019-01-17T09:41:41.080Z,4.20
2019-01-17T09:42:46.221Z,4.00
2019-01-17T09:43:51.319Z,3.60
2019-01-17T09:44:56.635Z,4.20
2019-01-17T09:46:02.383Z,3.45
2019-01-17T09:47:07.961Z,4.12
2019-01-17T09:48:13.263Z,3.70
2019-01-17T09:49:18.382Z,4.00
2019-01-17T09:50:24.964Z,3.22
2019-01-17T09:51:30.143Z,3.50
2019-01-17T09:52:35.833Z,4.05
2019-01-17T09:53:41.217Z,4.12
2019-01-17T09:54:46.298Z,3.52
2019-01-17T09:55:51.671Z,3.75
2019-01-17T09:56:56.726Z,3.70
2019-01-17T09:58:02.136Z,3.62
2019-01-17T09:59:07.487Z,4.00
2019-01-17T10:00:21.885Z,3.60
2019-01-17T10:01:27.404Z,3.83
2019-01-17T10:02:32.757Z,3.90
2019-01-17T10:03:40.452Z,3.67
2019-01-17T10:04:45.395Z,3.52
2019-01-17T10:05:51.030Z,3.87
2019-01-17T10:06:56.078Z,3.30
2019-01-17T10:08:01.322Z,3.70
2019-01-17T10:09:08.146Z,4.15
2019-01-17T10:10:15.716Z,3.75
2019-01-17T10:11:21.189Z,3.37
2019-01-17T10:12:26.675Z,3.62
2019-01-17T10:13:32.329Z,4.40
2019-01-17T10:14:37.538Z,3.42
2019-01-17T10:15:59.082Z,3.83
2019-01-17T10:17:29.252Z,3.37
2019-01-17T10:19:22.311Z,3.42
2019-01-17T10:21:20.356Z,3.50
2019-01-17T10:23:08.643Z,3.83
2019-01-17T10:25:07.114Z,3.65
2019-01-17T10:26:41.934Z,4.30
2019-01-17T10:28:37.866Z,4.95
2019-01-17T10:30:24.928Z,5.62
2019-01-17T10:31:41.436Z,3.08
2019-01-17T10:33:11.779Z,2.80
2019-01-17T10:34:58.151Z,2.70
2019-01-17T10:36:39.435Z,2.98
2019-01-17T10:38:31.735Z,2.70
2019-01-17T10:40:33.306Z,2.17
2019-01-17T10:41:54.965Z,2.33
2019-01-17T10:43:33.170Z,2.55
2019-01-17T10:45:13.068Z,2.10
2019-01-17T10:46:43.865Z,2.00
2019-01-17T10:48:39.553Z,1.90
2019-01-17T10:50:21.730Z,2.37
2019-01-17T10:52:13.219Z,2.42
2019-01-17T10:53:51.878Z,2.30
2019-01-17T10:55:31.597Z,1.92
2019-01-17T10:57:18.775Z,1.98
2019-01-17T10:59:17.621Z,1.80
2019-01-17T11:00:46.589Z,1.70
2019-01-17T11:02:12.839Z,1.75
2019-01-17T11:04:14.881Z,1.90
2019-01-17T11:05:55.806Z,2.02
2019-01-17T11:08:06.138Z,2.17
2019-01-17T11:09:54.224Z,1.70
2019-01-17T11:11:31.155Z,1.70
2019-01-17T11:13:17.247Z,1.92
2019-01-17T11:15:00.032Z,2.10
2019-01-17T11:16:55.792Z,2.00
2019-01-17T11:19:03.387Z,2.35
2019-01-17T11:20:56.121Z,2.15
2019-01-17T11:22:51.135Z,2.00
2019-01-17T11:24:22.016Z,2.20
2019-01-17T11:25:40.915Z,1.85
2019-01-17T11:27:25.394Z,1.82
2019-01-17T11:28:40.920Z,2.35
2019-01-17T11:30:15.604Z,2.12
2019-01-17T11:31:43.284Z,2.40
2019-01-17T11:33:22.130Z,1.90
2019-01-17T11:34:58.303Z,2.33
2019-01-17T11:36:18.479Z,1.90
2019-01-17T11:37:47.304Z,2.20
2019-01-17T11:39:20.480Z,2.30
2019-01-17T11:41:04.826Z,2.33
2019-01-17T11:42:48.143Z,2.30
2019-01-17T11:44:34.880Z,2.10
2019-01-17T11:46:39.266Z,3.15
2019-01-17T11:48:02.985Z,2.47
2019-01-17T11:49:47.653Z,2.75
2019-01-17T11:51:12.859Z,3.00
2019-01-17T11:52:45.786Z,2.90
2019-01-17T11:54:43.783Z,3.30
2019-01-17T11:56:28.243Z,3.58
2019-01-17T11:58:15.046Z,3.90
2019-01-17T12:00:06.950Z,3.55
2019-01-17T12:01:47.779Z,2.92
2019-01-17T12:03:15.405Z,2.08
2019-01-17T12:04:31.721Z,2.85
2019-01-17T12:05:36.790Z,3.37
2019-01-17T12:06:42.293Z,3.17
2019-01-17T12:07:47.647Z,3.37
2019-01-17T12:08:52.796Z,2.87
2019-01-17T12:09:58.017Z,3.12
2019-01-17T12:11:03.246Z,2.17
2019-01-17T12:12:09.362Z,1.90
2019-01-17T12:13:17.490Z,1.85
2019-01-17T12:14:21.743Z,1.80
2019-01-17T12:15:26.805Z,1.90
2019-01-17T12:16:33.112Z,1.67
2019-01-17T12:17:38.522Z,2.35
2019-01-17T12:18:43.714Z,1.80
2019-01-17T12:19:49.372Z,2.47
2019-01-17T12:20:54.452Z,2.35
2019-01-17T12:21:59.906Z,2.20
2019-01-17T12:23:04.981Z,2.15
2019-01-17T12:24:10.002Z,2.10
2019-01-17T12:25:15.280Z,2.02
2019-01-17T12:26:20.826Z,2.08
2019-01-17T12:27:25.788Z,2.10
2019-01-17T12:28:31.987Z,1.80
2019-01-17T12:29:37.407Z,2.08
2019-01-17T12:30:42.472Z,2.35
2019-01-17T12:31:47.907Z,1.92
2019-01-17T12:32:52.911Z,2.17
2019-01-17T12:33:57.969Z,2.25
2019-01-17T12:35:03.338Z,2.15
2019-01-17T12:36:08.437Z,2.12
2019-01-17T12:37:13.566Z,2.25
2019-01-17T12:38:19.313Z,1.70
2019-01-17T12:39:24.672Z,2.00
2019-01-17T12:40:29.720Z,2.02
2019-01-17T12:41:35.100Z,1.90
2019-01-17T12:42:41.367Z,1.70
2019-01-17T12:43:46.589Z,2.33
2019-01-17T12:44:51.921Z,1.82
2019-01-17T12:45:56.985Z,1.98
2019-01-17T12:47:02.459Z,1.87
2019-01-17T12:48:07.660Z,1.67
2019-01-17T12:49:13.111Z,2.08
2019-01-17T12:50:19.721Z,1.92
2019-01-17T12:51:25.330Z,1.92
2019-01-17T12:52:30.445Z,1.90
2019-01-17T12:53:35.489Z,2.20
2019-01-17T12:54:40.597Z,2.27
2019-01-17T12:55:46.334Z,1.95
2019-01-17T12:56:54.197Z,1.90
2019-01-17T12:57:59.050Z,1.98
2019-01-17T12:59:04.351Z,1.98
2019-01-17T13:00:13.365Z,1.90
2019-01-17T13:01:18.743Z,2.20
2019-01-17T13:02:24.182Z,2.35
2019-01-17T13:03:29.222Z,2.00
2019-01-17T13:04:34.407Z,2.35
2019-01-17T13:05:39.504Z,2.85
2019-01-17T13:06:44.656Z,1.95
2019-01-17T13:07:49.984Z,2.30
2019-01-17T13:08:55.652Z,2.30
2019-01-17T13:10:01.115Z,2.00
2019-01-17T13:11:07.706Z,2.40
2019-01-17T13:12:12.830Z,2.33
2019-01-17T13:13:18.263Z,2.25
2019-01-17T13:14:23.391Z,2.50
2019-01-17T13:15:29.208Z,2.35
2019-01-17T13:16:34.338Z,2.15
2019-01-17T13:17:39.753Z,2.85
2019-01-17T13:18:45.154Z,2.60
2019-01-17T13:19:50.329Z,2.77
2019-01-17T13:20:55.832Z,2.60
2019-01-17T13:22:00.905Z,2.30
2019-01-17T13:23:09.465Z,2.50
2019-01-17T13:24:14.944Z,2.55
2019-01-17T13:25:21.680Z,2.58
2019-01-17T13:26:27.025Z,2.67
2019-01-17T13:27:32.690Z,2.67
2019-01-17T13:28:37.792Z,2.50
2019-01-17T13:29:43.117Z,2.30
2019-01-17T13:30:48.839Z,2.37
2019-01-17T13:31:53.983Z,2.52
2019-01-17T13:32:59.129Z,2.60
2019-01-17T13:34:04.432Z,2.30
2019-01-17T13:35:10.079Z,1.95
2019-01-17T13:36:15.134Z,2.25
2019-01-17T13:37:20.191Z,2.40
2019-01-17T13:38:25.313Z,2.50
2019-01-17T13:39:30.633Z,1.70
2019-01-17T13:40:36.339Z,2.70
2019-01-17T13:41:41.448Z,2.40
2019-01-17T13:42:47.829Z,2.20
2019-01-17T13:43:53.738Z,2.40
2019-01-17T13:44:59.529Z,2.30
2019-01-17T13:46:04.989Z,2.37
2019-01-17T13:47:10.186Z,2.20
2019-01-17T13:48:15.275Z,2.05
2019-01-17T13:49:20.297Z,2.30
2019-01-17T13:50:25.553Z,2.67
2019-01-17T13:51:31.240Z,2.00
2019-01-17T13:52:36.338Z,2.52
2019-01-17T13:53:41.757Z,2.30
2019-01-17T13:54:47.004Z,2.62
2019-01-17T13:55:52.024Z,2.70
2019-01-17T13:56:57.014Z,2.75
2019-01-17T13:58:02.499Z,2.35
2019-01-17T13:59:07.691Z,2.90
2019-01-17T14:00:18.471Z,2.25
2019-01-17T14:01:23.904Z,2.30
2019-01-17T14:02:29.311Z,2.55
2019-01-17T14:03:35.294Z,2.77
2019-01-17T14:04:40.713Z,2.02
2019-01-17T14:05:45.878Z,2.55
2019-01-17T14:06:51.004Z,2.80
2019-01-17T14:07:56.001Z,2.60
2019-01-17T14:09:01.091Z,2.67
2019-01-17T14:10:07.938Z,2.15
2019-01-17T14:11:13.359Z,1.98
2019-01-17T14:12:18.731Z,2.30
2019-01-17T14:13:23.686Z,2.25
2019-01-17T14:14:28.852Z,1.98
2019-01-17T14:15:34.006Z,2.90
2019-01-17T14:16:39.084Z,2.30
2019-01-17T14:17:44.182Z,2.40
2019-01-17T14:18:49.546Z,2.50
2019-01-17T14:19:54.768Z,2.20
2019-01-17T14:20:59.902Z,2.30
2019-01-17T14:22:05.399Z,3.55
2019-01-17T14:23:10.784Z,2.62
2019-01-17T14:24:15.819Z,2.35
2019-01-17T14:25:21.000Z,2.70
2019-01-17T14:26:26.121Z,2.30
2019-01-17T14:27:31.743Z,2.20
2019-01-17T14:28:37.011Z,2.60
2019-01-17T14:29:42.127Z,2.72
2019-01-17T14:30:47.624Z,2.42
2019-01-17T14:31:52.993Z,3.47
2019-01-17T14:32:58.439Z,2.20
2019-01-17T14:34:03.530Z,2.50
2019-01-17T14:35:08.861Z,2.40
2019-01-17T14:36:13.972Z,3.00
2019-01-17T14:37:19.338Z,2.55
2019-01-17T14:38:24.444Z,2.92
2019-01-17T14:39:29.431Z,2.35
2019-01-17T14:40:35.334Z,2.60
2019-01-17T14:41:41.640Z,2.37
2019-01-17T14:42:46.883Z,2.33
2019-01-17T14:43:51.996Z,2.33
2019-01-17T14:44:57.714Z,2.40
2019-01-17T14:46:03.741Z,2.25
2019-01-17T14:47:09.088Z,2.50
2019-01-17T14:48:14.518Z,2.17
2019-01-17T14:49:20.164Z,2.00
2019-01-17T14:50:27.710Z,3.00
2019-01-17T14:51:33.554Z,2.50
2019-01-17T14:52:38.614Z,2.20
2019-01-17T14:53:44.032Z,2.60
2019-01-17T14:54:49.174Z,2.37
2019-01-17T14:55:54.199Z,2.25
2019-01-17T14:56:59.294Z,2.60
2019-01-17T14:58:05.213Z,2.40
2019-01-17T14:59:10.615Z,2.33
2019-01-17T15:00:20.467Z,2.00
2019-01-17T15:01:25.572Z,2.00
2019-01-17T15:02:30.710Z,2.20
2019-01-17T15:03:36.015Z,1.50
2019-01-17T15:04:41.090Z,2.08
2019-01-17T15:05:46.476Z,1.62
2019-01-17T15:06:51.843Z,1.98
2019-01-17T15:07:56.847Z,1.90
2019-01-17T15:09:03.198Z,1.92
2019-01-17T15:10:12.359Z,1.72
2019-01-17T15:11:17.567Z,1.72
2019-01-17T15:12:22.633Z,1.85
2019-01-17T15:13:28.409Z,1.60
2019-01-17T15:14:34.377Z,1.80
2019-01-17T15:15:40.227Z,2.10
2019-01-17T15:16:45.349Z,1.35
2019-01-17T15:17:50.486Z,2.72
2019-01-17T15:18:55.924Z,2.27
2019-01-17T15:20:01.346Z,1.85
2019-01-17T15:21:06.518Z,2.30
2019-01-17T15:22:12.207Z,1.50
2019-01-17T15:23:17.536Z,1.20
2019-01-17T15:24:22.673Z,1.90
2019-01-17T15:25:28.538Z,1.95
2019-01-17T15:26:33.643Z,1.98
2019-01-17T15:27:39.625Z,2.17